Time;durP1;ratioP1;P1;durP2;ratioP2;P2;SDS_P1;SDS_P2;PMS_P1;PMS_P2;Temp;Humidity;BMP_temperature;BMP_pressure;BME280_temperature;BME280_humidity;BME280_pressure;Samples;Min_cycle;Max_cycle;Signal;HPM_P1;HPM_P2
2022/07/03 00:00:41;;;;;;;23.95;15.85;;;20.20;99.90;;;;;;5112431;28;20181;-61
2022/07/03 00:03:07;;;;;;;21.75;15.88;;;20.30;99.90;;;;;;5111751;28;20184;-60
2022/07/03 00:05:34;;;;;;;23.27;15.48;;;20.20;99.90;;;;;;5093907;28;20232;-60
2022/07/03 00:08:00;;;;;;;23.60;15.68;;;20.20;99.90;;;;;;5077099;28;20188;-60
2022/07/03 00:10:25;;;;;;;20.23;16.08;;;20.20;99.90;;;;;;5112143;28;20260;-60
2022/07/03 00:12:51;;;;;;;23.88;15.77;;;20.20;99.90;;;;;;5111784;28;20184;-61
2022/07/03 00:15:17;;;;;;;24.00;16.52;;;20.30;99.90;;;;;;5077562;28;20223;-60
2022/07/03 00:17:42;;;;;;;20.02;15.18;;;20.20;99.90;;;;;;5111922;28;20326;-61
2022/07/03 00:20:09;;;;;;;26.08;16.70;;;20.30;99.90;;;;;;5093638;28;20603;-60
2022/07/03 00:22:38;;;;;;;23.60;16.95;;;20.20;99.90;;;;;;5112138;28;20264;-60
2022/07/03 00:25:06;;;;;;;22.45;16.10;;;20.20;99.90;;;;;;5111923;28;20637;-60
2022/07/03 00:27:34;;;;;;;26.10;17.52;;;20.20;99.90;;;;;;5111283;28;20236;-61
2022/07/03 00:30:02;;;;;;;25.25;18.33;;;20.20;99.90;;;;;;5111593;28;20206;-61
2022/07/03 00:32:28;;;;;;;24.33;16.85;;;20.20;99.90;;;;;;5111638;28;20184;-60
2022/07/03 00:34:56;;;;;;;32.03;18.55;;;20.20;99.90;;;;;;5111362;28;20586;-61
2022/07/03 00:37:23;;;;;;;27.98;17.48;;;20.20;99.90;;;;;;5111529;28;20490;-60
2022/07/03 00:39:49;;;;;;;23.88;18.10;;;20.10;99.90;;;;;;5111875;28;20187;-61
2022/07/03 00:42:16;;;;;;;30.58;18.52;;;20.10;99.90;;;;;;5111910;28;20196;-60
2022/07/03 00:44:48;;;;;;;26.85;17.85;;;20.10;99.90;;;;;;5093709;28;20664;-60
2022/07/03 00:47:15;;;;;;;26.23;18.25;;;20.10;99.90;;;;;;5111681;28;20172;-61
2022/07/03 00:49:46;;;;;;;21.77;17.13;;;20.10;99.90;;;;;;5112390;28;20183;-61
2022/07/03 00:52:13;;;;;;;25.05;17.80;;;20.10;99.90;;;;;;5111587;28;20169;-61
2022/07/03 00:54:50;;;;;;;24.40;19.40;;;20.10;99.90;;;;;;5091496;28;20188;-61
2022/07/03 00:57:17;;;;;;;25.63;17.92;;;20.10;99.90;;;;;;5089026;28;20223;-60
2022/07/03 00:59:43;;;;;;;27.73;17.55;;;20.10;99.90;;;;;;5089318;28;20181;-60
2022/07/03 01:02:32;;;;;;;23.50;18.23;;;20.10;99.90;;;;;;5098389;28;20256;-60
2022/07/03 01:05:27;;;;;;;25.05;17.65;;;20.10;99.90;;;;;;5111626;28;20185;-61
2022/07/03 01:08:26;;;;;;;27.90;17.92;;;20.10;99.90;;;;;;5102197;28;20675;-60
2022/07/03 01:10:57;;;;;;;25.98;18.10;;;20.00;99.90;;;;;;5111782;28;20190;-60
2022/07/03 01:13:23;;;;;;;29.95;18.65;;;20.00;99.90;;;;;;5111778;28;20180;-60
2022/07/03 01:15:57;;;;;;;25.98;19.23;;;20.00;99.90;;;;;;5111808;28;20172;-60
2022/07/03 01:18:45;;;;;;;28.33;19.08;;;20.00;99.90;;;;;;5111616;28;20722;-61
2022/07/03 01:21:35;;;;;;;25.70;17.77;;;19.90;99.90;;;;;;5111594;28;20267;-61
2022/07/03 01:24:19;;;;;;;31.02;19.67;;;19.90;99.90;;;;;;5110479;28;20176;-61
2022/07/03 01:26:47;;;;;;;30.92;20.38;;;19.90;99.90;;;;;;5114991;28;20238;-60
2022/07/03 01:29:25;;;;;;;27.60;19.17;;;19.90;99.90;;;;;;5113608;28;20263;-60
2022/07/03 01:31:53;;;;;;;28.35;19.65;;;19.90;99.90;;;;;;5114949;28;20180;-61
2022/07/03 01:34:21;;;;;;;27.20;19.23;;;19.90;99.90;;;;;;5114907;28;20208;-61
2022/07/03 01:36:50;;;;;;;31.45;20.05;;;19.80;99.90;;;;;;5114976;28;20678;-61
2022/07/03 01:39:21;;;;;;;27.15;18.80;;;19.80;99.90;;;;;;5114440;28;20183;-60
2022/07/03 01:41:50;;;;;;;27.77;19.45;;;19.80;99.90;;;;;;5115129;28;20267;-61
2022/07/03 01:44:16;;;;;;;27.08;19.80;;;19.80;99.90;;;;;;5096818;28;20173;-61
2022/07/03 01:46:45;;;;;;;28.40;18.85;;;19.70;99.90;;;;;;5114950;28;20183;-61
2022/07/03 01:49:14;;;;;;;29.02;19.05;;;19.70;99.90;;;;;;5114589;28;20175;-61
2022/07/03 01:51:42;;;;;;;35.38;19.88;;;19.70;99.90;;;;;;5114842;28;20271;-61
2022/07/03 01:54:10;;;;;;;28.00;21.48;;;19.70;99.90;;;;;;5114335;28;20173;-61
2022/07/03 01:56:36;;;;;;;30.92;19.40;;;19.60;99.90;;;;;;5096428;28;20247;-61
2022/07/03 01:59:03;;;;;;;36.80;20.08;;;19.60;99.90;;;;;;5114570;28;20632;-61
2022/07/03 02:01:57;;;;;;;29.98;21.58;;;19.60;99.90;;;;;;5079777;28;20183;-61
2022/07/03 02:04:28;;;;;;;29.00;19.77;;;19.60;99.90;;;;;;5114422;28;20179;-61
2022/07/03 02:06:54;;;;;;;30.50;20.23;;;19.50;99.90;;;;;;5114360;28;20176;-61
2022/07/03 02:09:28;;;;;;;28.05;20.92;;;19.50;99.90;;;;;;5096055;28;20675;-61
2022/07/03 02:11:54;;;;;;;36.17;21.35;;;19.50;99.90;;;;;;5114229;28;20168;-61
2022/07/03 02:14:25;;;;;;;32.67;22.05;;;19.50;99.90;;;;;;5114107;28;20191;-61
2022/07/03 02:17:11;;;;;;;37.88;21.40;;;19.40;99.90;;;;;;5114336;28;20306;-61
2022/07/03 02:19:53;;;;;;;33.53;21.95;;;19.40;99.90;;;;;;5114409;28;20251;-61
2022/07/03 02:22:20;;;;;;;32.30;21.48;;;19.40;99.90;;;;;;5095886;28;20635;-61
2022/07/03 02:24:47;;;;;;;32.08;21.52;;;19.30;99.90;;;;;;5078840;28;20188;-61
2022/07/03 02:27:19;;;;;;;35.47;22.35;;;19.30;99.90;;;;;;5091687;28;20775;-60
2022/07/03 02:30:15;;;;;;;41.75;21.88;;;19.30;99.90;;;;;;5093724;28;20225;-61
2022/07/03 02:32:48;;;;;;;33.72;21.40;;;19.30;99.90;;;;;;5084803;28;20402;-61
2022/07/03 02:35:21;;;;;;;37.47;22.38;;;19.30;99.90;;;;;;5075149;28;20241;-61
2022/07/03 02:38:03;;;;;;;31.60;21.00;;;19.20;99.90;;;;;;5075705;28;20236;-61
2022/07/03 02:40:39;;;;;;;37.97;22.38;;;19.20;99.90;;;;;;5093447;28;20226;-61
2022/07/03 02:43:26;;;;;;;34.83;21.75;;;19.30;99.90;;;;;;5091951;28;20164;-61
2022/07/03 02:49:16;;;;;;;32.53;21.48;;;19.30;99.90;;;;;;5093153;28;20265;-61
2022/07/03 02:51:57;;;;;;;37.08;22.45;;;19.30;99.90;;;;;;5093265;28;20181;-61
2022/07/03 02:54:24;;;;;;;31.42;21.38;;;19.40;99.90;;;;;;5091574;28;20184;-61
2022/07/03 02:57:09;;;;;;;33.97;21.98;;;19.40;99.90;;;;;;5092877;28;20216;-61
2022/07/03 02:59:55;;;;;;;34.70;23.83;;;19.40;99.90;;;;;;5093169;28;20173;-61
2022/07/03 03:02:55;;;;;;;42.45;23.98;;;19.40;99.90;;;;;;5093011;28;20177;-61
2022/07/03 03:05:48;;;;;;;36.67;23.95;;;19.40;99.90;;;;;;5093051;28;20173;-61
2022/07/03 03:08:51;;;;;;;36.42;22.77;;;19.40;99.90;;;;;;5092789;28;20677;-61
2022/07/03 03:11:32;;;;;;;36.75;23.00;;;19.40;99.90;;;;;;5090092;28;20295;-61
2022/07/03 03:14:02;;;;;;;39.17;25.85;;;19.50;99.90;;;;;;5091399;28;20180;-60
2022/07/03 03:16:28;;;;;;;37.92;22.92;;;19.50;99.90;;;;;;5092831;28;20478;-61
2022/07/03 03:18:53;;;;;;;38.17;23.38;;;19.50;99.90;;;;;;5091261;28;20184;-60
2022/07/03 03:21:23;;;;;;;38.90;24.02;;;19.60;99.90;;;;;;5092436;28;20207;-60
2022/07/03 03:23:52;;;;;;;35.25;22.00;;;19.60;99.90;;;;;;5092573;28;20173;-60
2022/07/03 03:26:28;;;;;;;36.13;22.73;;;19.70;99.90;;;;;;5090861;28;20193;-61
2022/07/03 03:28:54;;;;;;;40.15;23.60;;;19.70;99.90;;;;;;5111681;28;20734;-60
2022/07/03 03:31:20;;;;;;;41.90;22.77;;;19.70;99.90;;;;;;5112721;28;20168;-60
2022/07/03 03:33:50;;;;;;;35.17;22.50;;;19.80;99.90;;;;;;5112614;28;20241;-61
2022/07/03 03:36:18;;;;;;;38.28;24.90;;;19.80;99.90;;;;;;5112289;28;20176;-60
2022/07/03 03:38:45;;;;;;;39.40;22.83;;;19.80;99.90;;;;;;5112728;28;20256;-61
2022/07/03 03:41:11;;;;;;;38.08;22.85;;;19.80;99.90;;;;;;5077458;28;20190;-60
2022/07/03 03:43:37;;;;;;;41.03;23.63;;;19.80;99.90;;;;;;5112082;28;20246;-61
2022/07/03 03:46:03;;;;;;;46.63;25.48;;;19.90;99.90;;;;;;5093936;28;20327;-61
2022/07/03 03:48:34;;;;;;;46.95;25.70;;;19.90;99.90;;;;;;5111795;28;20184;-61
2022/07/03 03:51:02;;;;;;;42.85;25.55;;;19.90;99.90;;;;;;5093594;28;20652;-60
2022/07/03 03:53:29;;;;;;;42.67;25.95;;;19.90;99.90;;;;;;5112291;28;20172;-61
2022/07/03 03:56:05;;;;;;;46.28;23.55;;;19.90;99.90;;;;;;5111643;28;20181;-61
2022/07/03 03:58:32;;;;;;;46.75;25.00;;;19.90;99.90;;;;;;5111903;28;20307;-61
2022/07/03 04:00:59;;;;;;;42.13;24.35;;;20.00;99.90;;;;;;5112049;28;20177;-60
2022/07/03 04:03:27;;;;;;;40.05;24.42;;;20.00;99.90;;;;;;5093746;28;20188;-62
2022/07/03 04:05:54;;;;;;;40.70;24.23;;;20.10;99.90;;;;;;5077052;28;20618;-61
2022/07/03 04:08:21;;;;;;;44.15;26.13;;;20.10;99.90;;;;;;5111154;28;20197;-61
2022/07/03 04:10:47;;;;;;;50.10;27.10;;;20.10;99.90;;;;;;5093129;28;20210;-61
2022/07/03 04:13:13;;;;;;;46.10;23.98;;;20.10;99.90;;;;;;5111196;28;20184;-62
2022/07/03 04:15:39;;;;;;;38.78;23.52;;;20.20;99.90;;;;;;5093048;28;20267;-61
2022/07/03 04:18:05;;;;;;;39.70;23.67;;;20.20;99.90;;;;;;5111414;28;20319;-61
2022/07/03 04:20:31;;;;;;;41.40;23.60;;;20.30;99.90;;;;;;5111681;28;20176;-61
2022/07/03 04:23:00;;;;;;;36.58;24.35;;;20.40;99.90;;;;;;5111341;28;20229;-60
2022/07/03 04:25:26;;;;;;;46.33;24.48;;;20.30;99.90;;;;;;5076252;28;20641;-62
2022/07/03 04:27:53;;;;;;;41.40;25.63;;;20.40;99.90;;;;;;5089622;28;20319;-61
2022/07/03 04:30:19;;;;;;;46.45;24.77;;;20.50;99.90;;;;;;5089313;28;20647;-61
2022/07/03 04:32:45;;;;;;;36.40;21.35;;;20.50;99.90;;;;;;5090155;28;20764;-61
2022/07/03 04:35:11;;;;;;;42.88;23.80;;;20.60;99.90;;;;;;5090979;28;20275;-61
2022/07/03 04:37:36;;;;;;;34.30;22.38;;;20.60;99.90;;;;;;5091334;28;20240;-61
2022/07/03 04:40:02;;;;;;;30.58;20.30;;;20.60;99.90;;;;;;5089482;28;20176;-61
2022/07/03 04:42:28;;;;;;;33.45;22.58;;;20.60;99.90;;;;;;5090634;28;20177;-62
2022/07/03 04:44:54;;;;;;;38.78;21.30;;;20.60;99.90;;;;;;5091472;28;20200;-61
2022/07/03 04:47:20;;;;;;;31.55;21.63;;;20.70;99.90;;;;;;5089943;28;20185;-61
2022/07/03 04:49:46;;;;;;;32.35;21.50;;;20.80;99.90;;;;;;5091544;28;20181;-61
2022/07/03 04:52:12;;;;;;;31.13;20.35;;;20.70;99.90;;;;;;5089884;28;20180;-61
2022/07/03 04:54:38;;;;;;;33.75;21.80;;;20.70;99.90;;;;;;5091299;28;20595;-61
2022/07/03 04:57:04;;;;;;;34.03;20.10;;;20.80;99.90;;;;;;5091172;28;20240;-61
2022/07/03 04:59:30;;;;;;;31.63;19.70;;;20.80;99.90;;;;;;5092807;28;20238;-60
2022/07/03 05:01:56;;;;;;;32.10;21.02;;;20.70;99.90;;;;;;5093917;28;20189;-61
2022/07/03 05:04:21;;;;;;;30.15;20.58;;;20.60;99.90;;;;;;5093880;28;20639;-61
2022/07/03 05:06:47;;;;;;;32.45;19.20;;;20.60;99.90;;;;;;5095097;28;20571;-62
2022/07/03 05:09:13;;;;;;;29.70;19.40;;;20.70;99.90;;;;;;5093590;28;20710;-61
2022/07/03 05:11:40;;;;;;;33.20;20.98;;;20.60;99.90;;;;;;5095045;28;20209;-61
2022/07/03 05:14:06;;;;;;;31.23;21.25;;;20.60;99.90;;;;;;5094614;28;20204;-61
2022/07/03 05:16:32;;;;;;;33.78;20.77;;;20.60;99.90;;;;;;5095208;28;20212;-61
2022/07/03 05:18:58;;;;;;;36.53;20.13;;;20.70;99.90;;;;;;5093864;28;20579;-61
2022/07/03 05:21:24;;;;;;;32.95;20.73;;;20.90;99.90;;;;;;5076535;28;20203;-61
2022/07/03 05:23:49;;;;;;;28.90;18.67;;;21.10;99.90;;;;;;5093739;28;20177;-61
2022/07/03 05:26:15;;;;;;;32.30;19.70;;;21.30;99.90;;;;;;5094718;28;20221;-61
2022/07/03 05:28:41;;;;;;;35.03;19.23;;;21.40;99.90;;;;;;5109842;28;20255;-61
2022/07/03 05:31:07;;;;;;;32.00;19.35;;;21.50;99.90;;;;;;5114780;28;20225;-61
2022/07/03 05:33:33;;;;;;;28.95;18.20;;;21.60;99.90;;;;;;5096959;28;20184;-61
2022/07/03 05:35:59;;;;;;;26.75;18.27;;;21.60;99.90;;;;;;5115104;28;20176;-62
2022/07/03 05:41:10;;;;;;;30.25;19.92;;;21.70;99.90;;;;;;5114997;28;20237;-61
2022/07/03 05:43:36;;;;;;;38.72;20.55;;;21.70;99.90;;;;;;5114778;28;20203;-62
2022/07/03 05:46:03;;;;;;;27.55;18.05;;;21.70;99.90;;;;;;5114756;28;20187;-61
2022/07/03 05:48:29;;;;;;;28.05;19.40;;;21.70;99.90;;;;;;5096267;28;20193;-62
2022/07/03 05:50:55;;;;;;;28.70;18.73;;;21.80;99.90;;;;;;5114650;28;20164;-62
2022/07/03 05:53:21;;;;;;;28.90;19.75;;;21.90;99.90;;;;;;5114304;28;20180;-61
2022/07/03 05:55:47;;;;;;;31.85;19.23;;;22.00;99.90;;;;;;5079051;28;20181;-62
2022/07/03 05:58:12;;;;;;;27.52;19.08;;;22.00;99.90;;;;;;5114222;28;20220;-61
2022/07/03 06:00:38;;;;;;;30.55;18.77;;;22.10;99.90;;;;;;5114392;28;20182;-62
2022/07/03 06:03:04;;;;;;;33.78;19.88;;;22.30;99.90;;;;;;5114558;28;20180;-61
2022/07/03 06:05:30;;;;;;;32.83;19.60;;;22.50;99.90;;;;;;5114097;28;20180;-61
2022/07/03 06:07:55;;;;;;;32.00;19.85;;;22.80;99.90;;;;;;5113969;28;20214;-61
2022/07/03 06:10:21;;;;;;;29.13;19.60;;;22.90;99.90;;;;;;5113244;28;20172;-62
2022/07/03 06:12:48;;;;;;;34.92;21.10;;;23.00;99.90;;;;;;5114105;28;20195;-62
2022/07/03 06:15:13;;;;;;;29.95;20.40;;;23.20;99.90;;;;;;5095520;28;20279;-62
2022/07/03 06:17:39;;;;;;;31.30;19.38;;;23.40;99.90;;;;;;5096003;28;20299;-62
2022/07/03 06:20:06;;;;;;;26.08;20.00;;;23.50;99.90;;;;;;5113676;28;20172;-62
2022/07/03 06:22:32;;;;;;;36.20;21.48;;;23.50;99.90;;;;;;5113534;28;20176;-61
2022/07/03 06:24:59;;;;;;;29.40;20.17;;;24.00;99.90;;;;;;5113531;28;20188;-62
2022/07/03 06:27:25;;;;;;;30.45;19.63;;;24.20;99.90;;;;;;5112768;28;20219;-61
2022/07/03 06:29:51;;;;;;;30.35;19.35;;;24.40;99.90;;;;;;5078035;28;20313;-61
2022/07/03 06:32:17;;;;;;;28.02;18.00;;;24.50;99.90;;;;;;5094647;28;20591;-61
2022/07/03 06:34:43;;;;;;;26.27;18.48;;;24.80;99.90;;;;;;5074798;28;20177;-62
2022/07/03 06:37:09;;;;;;;25.85;17.92;;;25.00;99.90;;;;;;5074803;28;20696;-62
2022/07/03 06:39:35;;;;;;;31.17;20.05;;;25.40;99.90;;;;;;5075266;28;20203;-62
2022/07/03 06:42:01;;;;;;;32.88;19.90;;;25.70;99.90;;;;;;5092972;28;20625;-61
2022/07/03 06:44:27;;;;;;;34.22;21.23;;;25.90;99.90;;;;;;5092715;28;20633;-61
2022/07/03 06:46:53;;;;;;;28.83;20.15;;;26.30;99.90;;;;;;5058199;28;20646;-63
2022/07/03 06:49:19;;;;;;;28.20;19.83;;;26.40;99.90;;;;;;5092223;28;20653;-60
2022/07/03 06:51:44;;;;;;;31.40;21.73;;;26.30;99.90;;;;;;5079847;28;20272;-59
2022/07/03 06:54:10;;;;;;;31.33;22.20;;;26.10;99.90;;;;;;5092341;28;20273;-61
2022/07/03 06:56:36;;;;;;;38.30;22.30;;;26.00;99.90;;;;;;5094453;28;20184;-58
2022/07/03 06:59:02;;;;;;;31.65;21.13;;;25.90;99.90;;;;;;5109809;28;20177;-61
2022/07/03 07:01:28;;;;;;;39.00;23.65;;;25.80;99.90;;;;;;5095472;28;20176;-59
2022/07/03 07:03:54;;;;;;;35.42;21.60;;;26.00;99.90;;;;;;5112034;28;20171;-62
2022/07/03 07:06:19;;;;;;;33.72;21.88;;;25.70;99.90;;;;;;5112725;28;20172;-62
2022/07/03 07:08:46;;;;;;;35.83;22.05;;;25.80;99.90;;;;;;5111970;28;20209;-61
2022/07/03 07:11:11;;;;;;;40.47;22.60;;;26.00;99.90;;;;;;5093418;28;20184;-60
2022/07/03 07:13:37;;;;;;;37.13;22.83;;;26.20;99.90;;;;;;5111315;28;20184;-60
2022/07/03 07:16:03;;;;;;;40.72;23.52;;;26.50;99.90;;;;;;5112001;28;20523;-65
2022/07/03 07:18:29;;;;;;;40.95;24.17;;;26.50;99.90;;;;;;5110318;28;20219;-64
2022/07/03 07:20:55;;;;;;;36.38;22.25;;;26.60;99.90;;;;;;5092668;28;20188;-61
2022/07/03 07:23:21;;;;;;;31.80;21.92;;;26.80;99.90;;;;;;5092878;28;20217;-60
2022/07/03 07:25:46;;;;;;;33.58;21.42;;;26.70;99.90;;;;;;5093981;28;20601;-63
2022/07/03 07:28:12;;;;;;;32.85;20.83;;;26.80;99.90;;;;;;5111872;28;20691;-61
2022/07/03 07:30:40;;;;;;;34.58;22.67;;;26.50;99.90;;;;;;5111868;28;20188;-64
2022/07/03 07:33:07;;;;;;;33.05;22.98;;;26.10;99.90;;;;;;5111140;28;20189;-62
2022/07/03 07:35:33;;;;;;;33.35;22.67;;;25.70;99.90;;;;;;5111386;28;20545;-62
2022/07/03 07:37:59;;;;;;;34.35;24.55;;;25.30;99.90;;;;;;5093171;28;20216;-62
2022/07/03 07:40:25;;;;;;;38.00;23.77;;;25.40;99.90;;;;;;5110968;28;20200;-62
2022/07/03 07:42:50;;;;;;;37.90;24.65;;;25.50;99.90;;;;;;5110554;28;20199;-64
2022/07/03 07:45:16;;;;;;;37.60;24.48;;;25.60;99.90;;;;;;5110944;28;20270;-59
2022/07/03 07:47:42;;;;;;;45.03;25.73;;;25.80;99.90;;;;;;5093316;28;20196;-62
2022/07/03 07:50:08;;;;;;;39.47;25.15;;;26.00;99.90;;;;;;5109800;28;20657;-61
2022/07/03 07:52:34;;;;;;;39.60;23.58;;;26.10;99.90;;;;;;5092067;28;20192;-61
2022/07/03 07:55:00;;;;;;;40.97;23.40;;;26.10;99.90;;;;;;5110845;28;20207;-58
2022/07/03 07:57:33;;;;;;;45.05;24.60;;;26.20;99.90;;;;;;5110904;28;20573;-59
2022/07/03 07:59:59;;;;;;;40.00;24.15;;;26.30;99.90;;;;;;5111163;28;20249;-62
2022/07/03 08:07:52;;;;;;;35.08;23.08;;;27.10;99.90;;;;;;5111329;28;20206;-62
2022/07/03 08:10:18;;;;;;;40.45;25.23;;;27.20;99.90;;;;;;5111069;27;20181;-63
2022/07/03 08:12:44;;;;;;;36.75;24.40;;;26.70;99.90;;;;;;5110604;28;20262;-60
2022/07/03 08:15:10;;;;;;;36.33;23.55;;;26.20;99.90;;;;;;5111408;28;20550;-63
2022/07/03 08:17:35;;;;;;;39.20;23.10;;;26.40;99.90;;;;;;5108654;28;20216;-60
2022/07/03 08:20:01;;;;;;;42.78;23.85;;;26.60;99.90;;;;;;5092052;28;20634;-59
2022/07/03 08:22:27;;;;;;;36.50;23.88;;;26.80;99.90;;;;;;5092495;28;20199;-57
2022/07/03 08:24:52;;;;;;;37.23;24.23;;;26.70;99.90;;;;;;5110892;28;21069;-60
2022/07/03 08:27:19;;;;;;;35.10;22.60;;;27.00;99.90;;;;;;5092768;28;20227;-58
2022/07/03 08:29:44;;;;;;;44.28;23.02;;;26.90;99.90;;;;;;5092205;28;20274;-59
2022/07/03 08:32:10;;;;;;;34.70;21.65;;;26.70;99.90;;;;;;5110918;28;20582;-61
2022/07/03 08:34:36;;;;;;;37.22;22.27;;;26.60;99.90;;;;;;5095849;28;20193;-60
2022/07/03 08:37:02;;;;;;;33.40;21.17;;;26.80;99.90;;;;;;5115360;28;20211;-59
2022/07/03 08:39:27;;;;;;;36.13;22.52;;;26.70;99.90;;;;;;5097666;28;20182;-58
2022/07/03 08:41:54;;;;;;;38.92;23.23;;;26.70;99.90;;;;;;5114664;27;20649;-73
2022/07/03 08:44:22;;;;;;;35.08;22.55;;;26.80;99.90;;;;;;5096437;28;20683;-63
2022/07/03 08:46:49;;;;;;;40.00;23.50;;;27.20;99.90;;;;;;5114808;28;20195;-65
2022/07/03 08:49:16;;;;;;;34.65;23.02;;;27.50;99.90;;;;;;5096014;27;20245;-63
2022/07/03 08:51:43;;;;;;;37.17;22.52;;;27.60;99.90;;;;;;5113366;28;20184;-62
2022/07/03 08:54:09;;;;;;;34.00;22.70;;;28.00;99.90;;;;;;5114843;28;20644;-63
2022/07/03 08:56:36;;;;;;;39.22;23.30;;;28.10;99.90;;;;;;5114263;28;20227;-61
2022/07/03 08:59:05;;;;;;;32.75;21.85;;;28.60;99.90;;;;;;5096332;28;20272;-63
2022/07/03 09:01:32;;;;;;;36.90;22.40;;;28.50;99.90;;;;;;5114306;27;20187;-64
2022/07/03 09:03:58;;;;;;;35.15;22.63;;;28.80;99.90;;;;;;5095204;28;20235;-63
2022/07/03 09:06:24;;;;;;;32.80;22.38;;;28.60;99.90;;;;;;5096442;28;20194;-64
2022/07/03 09:08:53;;;;;;;33.13;22.33;;;28.90;99.90;;;;;;5114528;28;20180;-64
2022/07/03 09:11:19;;;;;;;36.55;23.48;;;28.80;99.50;;;;;;5095044;28;20195;-63
2022/07/03 09:13:45;;;;;;;37.47;23.35;;;29.10;99.50;;;;;;5114649;27;20686;-62
2022/07/03 09:16:16;;;;;;;35.38;22.58;;;29.50;99.10;;;;;;5114284;28;20201;-65
2022/07/03 09:18:43;;;;;;;39.78;24.15;;;29.80;98.10;;;;;;5109089;28;20778;-65
2022/07/03 09:21:09;;;;;;;34.25;23.65;;;29.60;98.70;;;;;;5112949;28;20180;-64
2022/07/03 09:23:43;;;;;;;33.20;23.00;;;29.80;98.10;;;;;;5113653;28;20210;-64
2022/07/03 09:26:17;;;;;;;35.85;24.00;;;29.90;97.60;;;;;;5113967;28;20188;-64
2022/07/03 09:28:51;;;;;;;32.25;22.77;;;29.40;97.90;;;;;;5113719;28;20239;-64
2022/07/03 09:31:24;;;;;;;32.28;23.80;;;29.00;98.60;;;;;;5113541;28;20191;-64
2022/07/03 09:33:57;;;;;;;34.95;24.00;;;28.80;99.10;;;;;;5111364;28;20961;-66
2022/07/03 09:36:46;;;;;;;35.05;24.02;;;29.00;99.20;;;;;;5111415;28;20785;-64
2022/07/03 09:39:31;;;;;;;28.75;21.52;;;29.20;98.70;;;;;;5093286;28;20613;-67
2022/07/03 09:42:04;;;;;;;30.95;23.23;;;29.70;98.10;;;;;;5112974;28;20188;-67
2022/07/03 09:44:42;;;;;;;34.10;22.95;;;30.00;97.60;;;;;;5112328;28;20214;-65
2022/07/03 09:47:07;;;;;;;36.50;23.13;;;29.30;97.60;;;;;;5112573;28;20637;-64
2022/07/03 09:49:49;;;;;;;31.10;22.65;;;29.60;97.40;;;;;;5112560;28;20195;-67
2022/07/03 09:52:43;;;;;;;36.42;21.80;;;29.60;97.20;;;;;;5112767;28;20180;-63
2022/07/03 09:55:09;;;;;;;35.92;24.48;;;29.80;97.40;;;;;;5112524;28;20238;-64
2022/07/03 09:57:38;;;;;;;30.65;21.92;;;29.30;97.20;;;;;;5112808;28;20308;-64
2022/07/03 10:00:23;;;;;;;39.95;23.45;;;29.30;97.40;;;;;;5112536;28;20188;-64
2022/07/03 10:02:55;;;;;;;33.60;23.80;;;29.60;96.90;;;;;;5111972;28;20214;-65
2022/07/03 10:05:22;;;;;;;36.40;22.67;;;29.90;96.70;;;;;;5112018;28;20189;-65
2022/07/03 10:07:57;;;;;;;33.22;22.27;;;29.90;96.30;;;;;;5112507;28;20234;-66
2022/07/03 10:10:26;;;;;;;35.92;22.75;;;30.00;96.60;;;;;;5112900;28;20192;-64
2022/07/03 10:12:54;;;;;;;30.30;22.98;;;30.30;96.20;;;;;;5112016;28;20230;-64
2022/07/03 10:15:21;;;;;;;34.13;22.17;;;30.50;95.80;;;;;;5111774;28;20621;-64
2022/07/03 10:17:49;;;;;;;33.22;22.55;;;30.00;95.80;;;;;;5109944;28;20287;-64
2022/07/03 10:20:18;;;;;;;29.45;21.13;;;29.80;96.00;;;;;;5092677;28;20299;-66
2022/07/03 10:22:47;;;;;;;29.70;21.73;;;30.10;95.70;;;;;;5093797;28;20230;-65
2022/07/03 10:25:14;;;;;;;33.83;22.50;;;29.70;95.90;;;;;;5112380;28;20180;-66
2022/07/03 10:27:40;;;;;;;29.67;22.35;;;30.50;96.00;;;;;;5094092;28;20360;-66
2022/07/03 10:30:07;;;;;;;32.42;23.02;;;31.20;94.80;;;;;;5111694;28;20192;-65
2022/07/03 10:32:33;;;;;;;33.88;24.20;;;31.60;94.10;;;;;;5093268;28;20553;-65
2022/07/03 10:35:01;;;;;;;33.47;23.27;;;31.50;93.10;;;;;;5111654;28;20275;-66
2022/07/03 10:37:36;;;;;;;30.80;22.58;;;31.50;94.10;;;;;;5111550;28;20640;-64
2022/07/03 10:46:14;;;;;;;33.13;21.17;;;30.90;93.00;;;;;;5111553;28;20192;-66
2022/07/03 10:48:55;;;;;;;29.30;21.27;;;31.30;92.70;;;;;;5104171;28;20260;-66
2022/07/03 10:51:21;;;;;;;28.27;20.40;;;32.30;92.00;;;;;;5111102;28;20183;-64
2022/07/03 10:53:48;;;;;;;29.45;19.45;;;31.90;91.40;;;;;;5111738;28;20191;-64
2022/07/03 10:56:14;;;;;;;26.70;19.23;;;31.20;91.10;;;;;;5110773;28;20192;-66
2022/07/03 10:59:06;;;;;;;28.13;19.33;;;31.00;91.60;;;;;;5093145;28;20215;-65
2022/07/03 11:01:35;;;;;;;30.55;20.17;;;30.30;92.60;;;;;;5106551;28;20253;-65
2022/07/03 11:04:01;;;;;;;26.60;19.90;;;30.30;92.90;;;;;;5091894;28;20530;-65
2022/07/03 11:06:51;;;;;;;31.83;19.83;;;30.70;92.90;;;;;;5111660;28;20194;-64
2022/07/03 11:09:16;;;;;;;26.40;18.85;;;31.10;92.20;;;;;;5101566;28;20227;-66
2022/07/03 11:11:59;;;;;;;32.50;19.60;;;31.50;91.30;;;;;;5111675;28;20239;-65
2022/07/03 11:14:27;;;;;;;26.73;19.42;;;31.80;90.60;;;;;;5111767;28;20188;-65
2022/07/03 11:17:21;;;;;;;26.38;18.40;;;32.20;89.00;;;;;;5110439;28;20568;-66
2022/07/03 11:22:51;;;;;;;25.55;17.88;;;32.40;89.10;;;;;;5111678;28;20191;-65
2022/07/03 11:25:17;;;;;;;25.98;19.35;;;32.80;87.10;;;;;;5111294;28;20531;-66
2022/07/03 11:27:43;;;;;;;27.52;18.88;;;32.90;86.20;;;;;;5111760;28;20236;-65
2022/07/03 11:30:12;;;;;;;24.88;18.33;;;33.70;84.70;;;;;;5111352;28;20329;-64
2022/07/03 11:32:49;;;;;;;26.98;18.42;;;34.20;78.40;;;;;;5110717;28;20544;-66
2022/07/03 11:35:46;;;;;;;26.40;19.00;;;34.00;79.30;;;;;;5110616;28;20537;-64
2022/07/03 11:38:20;;;;;;;26.35;18.92;;;33.60;79.20;;;;;;5110797;28;20292;-66
2022/07/03 11:40:49;;;;;;;21.02;16.50;;;33.80;80.40;;;;;;5111317;28;20191;-66
2022/07/03 11:43:15;;;;;;;23.88;17.33;;;34.20;74.80;;;;;;5110737;28;20207;-66
2022/07/03 11:45:41;;;;;;;23.73;17.40;;;34.10;74.90;;;;;;5110813;28;20272;-65
2022/07/03 11:48:13;;;;;;;20.92;16.17;;;33.60;74.30;;;;;;5111304;28;20192;-66
2022/07/03 11:50:44;;;;;;;22.85;16.83;;;33.40;75.90;;;;;;5109706;28;20192;-64
2022/07/03 11:53:25;;;;;;;20.83;16.40;;;33.50;75.50;;;;;;5110140;28;20241;-66
2022/07/03 11:55:59;;;;;;;24.67;17.02;;;33.90;74.80;;;;;;5110223;28;20649;-65
2022/07/03 11:58:40;;;;;;;29.23;19.10;;;34.40;73.40;;;;;;5110685;28;20223;-64
2022/07/03 12:01:05;;;;;;;30.38;18.38;;;34.40;73.00;;;;;;5110509;28;20219;-65
2022/07/03 12:03:31;;;;;;;29.17;17.10;;;34.00;73.90;;;;;;5110836;28;20208;-64
2022/07/03 12:05:58;;;;;;;28.08;17.92;;;33.80;73.50;;;;;;5110874;28;20230;-63
2022/07/03 12:08:32;;;;;;;23.52;17.48;;;33.40;75.00;;;;;;5110863;28;20203;-65
2022/07/03 12:11:05;;;;;;;26.80;17.58;;;33.10;75.40;;;;;;5110449;28;20275;-64
2022/07/03 12:13:33;;;;;;;27.75;19.60;;;33.20;75.00;;;;;;5110375;28;20203;-64
2022/07/03 12:16:07;;;;;;;22.80;18.08;;;32.50;75.80;;;;;;5110837;28;20184;-64
2022/07/03 12:18:48;;;;;;;27.58;18.77;;;31.50;78.00;;;;;;5106858;28;20211;-65
2022/07/03 12:21:15;;;;;;;26.77;19.20;;;31.80;79.70;;;;;;5110455;28;20650;-64
2022/07/03 12:23:50;;;;;;;30.15;20.48;;;31.50;78.80;;;;;;5110832;28;20180;-64
2022/07/03 12:26:30;;;;;;;25.33;17.52;;;31.60;80.60;;;;;;5110740;28;20183;-63
2022/07/03 12:29:01;;;;;;;28.10;18.55;;;31.10;79.90;;;;;;5110856;28;20231;-64
2022/07/03 12:31:29;;;;;;;24.60;18.60;;;31.40;81.60;;;;;;5109937;28;20215;-64
2022/07/03 12:33:56;;;;;;;23.83;17.50;;;31.40;80.40;;;;;;5110851;28;20196;-64
2022/07/03 12:36:23;;;;;;;24.10;17.42;;;32.00;80.40;;;;;;5091945;28;20571;-63
2022/07/03 12:38:52;;;;;;;25.27;18.45;;;32.40;80.40;;;;;;5110236;28;20226;-64
2022/07/03 12:41:18;;;;;;;28.08;18.77;;;33.20;77.10;;;;;;5110637;28;20222;-63
2022/07/03 12:43:47;;;;;;;28.45;17.80;;;33.80;75.80;;;;;;5110129;28;20196;-66
2022/07/03 12:46:20;;;;;;;23.67;17.95;;;35.50;72.50;;;;;;5110799;28;20260;-65
2022/07/03 12:48:49;;;;;;;27.23;19.48;;;36.70;68.40;;;;;;5110813;28;20656;-64
2022/07/03 12:51:16;;;;;;;26.58;20.50;;;37.00;67.40;;;;;;5109684;28;20278;-66
2022/07/03 12:53:42;;;;;;;31.98;21.90;;;36.00;67.60;;;;;;5109711;28;20188;-65
2022/07/03 12:56:13;;;;;;;29.80;20.58;;;34.80;70.60;;;;;;5110481;28;20194;-64
2022/07/03 13:01:38;;;;;;;31.55;21.60;;;33.00;74.70;;;;;;5095294;28;20242;-65
2022/07/03 13:04:06;;;;;;;30.55;21.65;;;32.60;75.80;;;;;;5110224;28;20210;-66